Time;durP1;ratioP1;P1;durP2;ratioP2;P2;SDS_P1;SDS_P2;PMS_P1;PMS_P2;Temp;Humidity;BMP_temperature;BMP_pressure;BME280_temperature;BME280_humidity;BME280_pressure;Samples;Min_cycle;Max_cycle;Signal;HPM_P1;HPM_P2
2021/03/08 00:03:59;;;;;;;24.53;13.00;;;;;;;-2.14;73.60;98723.29;259119;1108;23027;-71
2021/03/08 00:09:02;;;;;;;26.93;13.20;;;;;;;-2.20;73.33;98718.88;259044;1108;23522;-72
2021/03/08 00:14:04;;;;;;;26.70;11.83;;;;;;;-2.28;73.62;98723.34;258965;1108;23080;-72
2021/03/08 00:19:06;;;;;;;23.90;12.23;;;;;;;-2.35;73.36;98722.56;259081;1108;23146;-71
2021/03/08 00:24:09;;;;;;;26.30;13.00;;;;;;;-2.45;74.33;98722.16;259029;1108;23184;-72
2021/03/08 00:29:10;;;;;;;28.00;13.77;;;;;;;-2.52;74.14;98724.78;258925;1109;23024;-71
2021/03/08 00:34:13;;;;;;;23.73;12.30;;;;;;;-2.59;74.46;98727.44;258864;1109;23210;-71
2021/03/08 00:39:15;;;;;;;28.33;13.97;;;;;;;-2.61;74.88;98733.89;258870;1107;23358;-72
2021/03/08 00:44:17;;;;;;;30.97;13.83;;;;;;;-2.63;75.18;98734.10;258931;1109;23238;-72
2021/03/08 00:49:19;;;;;;;26.10;12.60;;;;;;;-2.62;75.02;98717.33;258956;1108;23018;-74
2021/03/08 00:54:21;;;;;;;22.50;11.07;;;;;;;-2.56;75.21;98712.29;259085;1109;23082;-73
2021/03/08 00:59:24;;;;;;;22.67;12.47;;;;;;;-2.52;75.30;98709.05;259049;1109;23000;-72
2021/03/08 01:04:27;;;;;;;22.07;11.87;;;;;;;-2.48;74.90;98710.25;259002;1108;23083;-72
2021/03/08 01:09:30;;;;;;;21.93;11.63;;;;;;;-2.40;75.07;98709.23;259032;1108;23015;-73
2021/03/08 01:14:34;;;;;;;16.93;9.00;;;;;;;-2.31;74.98;98696.70;258932;1109;23063;-71
2021/03/08 01:19:36;;;;;;;21.03;10.07;;;;;;;-2.19;75.39;98689.00;258878;1108;23202;-74
2021/03/08 01:24:38;;;;;;;23.23;11.43;;;;;;;-2.03;75.03;98688.52;258906;1108;24805;-73
2021/03/08 01:29:40;;;;;;;20.23;12.47;;;;;;;-1.85;74.93;98679.95;258748;1107;23190;-72
2021/03/08 01:34:42;;;;;;;20.63;10.10;;;;;;;-1.72;74.82;98681.73;258916;1107;23107;-72
2021/03/08 01:39:44;;;;;;;18.37;10.53;;;;;;;-1.61;74.66;98670.55;259363;1109;23040;-71
2021/03/08 01:44:48;;;;;;;21.00;11.03;;;;;;;-1.48;74.62;98663.58;258992;1108;23419;-72
2021/03/08 01:49:50;;;;;;;22.50;11.85;;;;;;;-1.42;74.74;98662.75;259228;1108;23022;-72
2021/03/08 01:54:53;;;;;;;22.47;11.20;;;;;;;-1.36;74.38;98661.88;258924;1109;23250;-71
2021/03/08 01:59:55;;;;;;;23.43;10.73;;;;;;;-1.29;73.91;98662.64;259032;1108;23382;-71
2021/03/08 02:04:59;;;;;;;24.30;11.95;;;;;;;-1.25;74.09;98658.56;258948;1109;23171;-72
2021/03/08 02:10:06;;;;;;;16.97;8.90;;;;;;;-1.18;73.55;98655.09;258917;1108;22996;-71
2021/03/08 02:15:33;;;;;;;16.53;9.37;;;;;;;-1.10;74.14;98655.62;258992;1108;23111;-72
2021/03/08 02:20:46;;;;;;;17.60;10.83;;;;;;;-1.02;73.66;98654.56;258876;1108;22984;-71
2021/03/08 02:26:30;;;;;;;23.57;11.07;;;;;;;-0.95;73.94;98655.30;258835;1108;23086;-71
2021/03/08 02:31:33;;;;;;;19.47;10.87;;;;;;;-0.91;73.77;98651.22;258980;1109;23013;-72
2021/03/08 02:36:41;;;;;;;17.47;10.30;;;;;;;-0.82;73.57;98648.32;259012;1108;23074;-71
2021/03/08 02:41:47;;;;;;;17.20;10.67;;;;;;;-0.80;73.18;98651.52;259180;1109;26047;-72
2021/03/08 02:46:51;;;;;;;19.20;10.30;;;;;;;-0.77;73.29;98651.08;259245;1107;23147;-72
2021/03/08 02:51:58;;;;;;;19.93;11.07;;;;;;;-0.71;73.62;98644.97;259008;1108;27514;-71
2021/03/08 02:57:08;;;;;;;21.20;11.07;;;;;;;-0.64;73.46;98650.97;259069;1109;22983;-72
2021/03/08 03:02:11;;;;;;;18.20;10.18;;;;;;;-0.59;72.80;98648.50;259042;1109;23363;-72
2021/03/08 03:07:16;;;;;;;17.20;9.73;;;;;;;-0.59;72.62;98645.04;259034;1107;23074;-72
2021/03/08 03:12:19;;;;;;;21.53;11.87;;;;;;;-0.56;73.39;98641.97;259041;1109;23012;-72
2021/03/08 03:17:22;;;;;;;20.63;11.83;;;;;;;-0.53;73.08;98639.71;258953;1108;23034;-73
2021/03/08 03:22:27;;;;;;;22.33;12.93;;;;;;;-0.55;73.04;98641.74;259094;1108;23151;-73
2021/03/08 03:27:30;;;;;;;19.43;10.73;;;;;;;-0.52;72.77;98643.14;259131;1108;23053;-72
2021/03/08 03:32:33;;;;;;;21.03;11.60;;;;;;;-0.52;72.71;98641.33;259128;1108;23182;-71
2021/03/08 03:37:36;;;;;;;17.53;10.13;;;;;;;-0.47;72.94;98643.30;259035;1109;23228;-72
2021/03/08 03:42:38;;;;;;;23.53;12.03;;;;;;;-0.48;73.42;98641.67;259004;1108;23499;-71
2021/03/08 03:47:41;;;;;;;21.47;10.33;;;;;;;-0.38;73.40;98644.63;258868;1108;23196;-72
2021/03/08 03:52:43;;;;;;;21.43;10.93;;;;;;;-0.36;72.50;98645.19;259101;1108;23357;-70
2021/03/08 03:57:48;;;;;;;15.40;9.50;;;;;;;-0.36;73.11;98644.40;258799;1107;23019;-72
2021/03/08 04:03:06;;;;;;;22.80;11.77;;;;;;;-0.39;72.46;98648.27;258850;1108;23228;-71
2021/03/08 04:08:15;;;;;;;20.97;11.83;;;;;;;-0.39;72.25;98645.64;259005;1108;23140;-72
2021/03/08 04:13:20;;;;;;;19.93;11.83;;;;;;;-0.40;72.32;98637.96;258983;1108;23223;-71
2021/03/08 04:18:25;;;;;;;21.10;12.87;;;;;;;-0.39;72.96;98643.00;259041;1108;23063;-72
2021/03/08 04:23:30;;;;;;;26.47;13.30;;;;;;;-0.39;72.67;98645.64;258959;1109;23174;-72
2021/03/08 04:28:33;;;;;;;28.17;13.30;;;;;;;-0.32;72.85;98640.30;258930;1109;23082;-70
2021/03/08 04:33:36;;;;;;;19.57;11.23;;;;;;;-0.28;73.06;98651.17;259016;1109;26096;-71
2021/03/08 04:38:43;;;;;;;21.43;12.80;;;;;;;-0.22;72.99;98652.95;258874;1108;23229;-71
2021/03/08 04:43:46;;;;;;;21.37;11.87;;;;;;;-0.20;73.41;98651.70;258959;1108;23024;-71
2021/03/08 04:48:49;;;;;;;22.10;12.30;;;;;;;-0.19;73.19;98657.77;259082;1107;23023;-71
2021/03/08 04:53:53;;;;;;;22.10;12.17;;;;;;;-0.19;73.17;98660.39;258884;1109;23020;-72
2021/03/08 04:59:05;;;;;;;26.13;13.53;;;;;;;-0.22;73.25;98661.64;258998;1108;22999;-72
2021/03/08 05:04:08;;;;;;;23.80;12.70;;;;;;;-0.26;72.86;98676.27;259114;1108;23171;-72
2021/03/08 05:09:13;;;;;;;18.43;10.83;;;;;;;-0.29;74.16;98679.34;258928;1108;23083;-72
2021/03/08 05:14:18;;;;;;;18.63;9.80;;;;;;;-0.33;73.86;98675.54;258999;1109;23225;-72
2021/03/08 05:19:21;;;;;;;19.37;9.90;;;;;;;-0.38;74.25;98670.12;258876;1109;24363;-71
2021/03/08 05:24:24;;;;;;;16.00;10.00;;;;;;;-0.38;73.79;98683.28;259056;1108;23241;-71
2021/03/08 05:29:27;;;;;;;21.03;10.60;;;;;;;-0.40;74.65;98686.13;259002;1108;23083;-72
2021/03/08 05:34:31;;;;;;;16.37;9.97;;;;;;;-0.44;74.72;98684.16;258925;1108;23009;-73
2021/03/08 05:39:35;;;;;;;20.00;12.17;;;;;;;-0.46;75.36;98691.46;258992;1108;22979;-71
2021/03/08 05:44:47;;;;;;;20.33;12.33;;;;;;;-0.44;75.62;98692.06;259067;1108;26204;-72
2021/03/08 05:50:11;;;;;;;22.55;13.30;;;;;;;-0.42;74.86;98695.27;259072;1109;23096;-72
2021/03/08 05:55:38;;;;;;;22.40;12.37;;;;;;;-0.35;75.95;98691.55;259248;1108;23018;-70
2021/03/08 06:01:11;;;;;;;19.43;10.77;;;;;;;-0.27;75.77;98703.61;258907;1108;26073;-71
2021/03/08 06:06:46;;;;;;;28.67;15.37;;;;;;;-0.21;75.55;98705.37;259081;1109;26386;-73
2021/03/08 06:12:00;;;;;;;29.80;14.87;;;;;;;-0.10;75.93;98705.66;259176;1108;23196;-72
2021/03/08 06:17:03;;;;;;;27.07;13.60;;;;;;;-0.07;76.02;98710.48;259206;1108;23154;-71
2021/03/08 06:22:10;;;;;;;27.17;15.27;;;;;;;-0.08;75.98;98725.48;259028;1108;27748;-72
2021/03/08 06:27:15;;;;;;;21.90;12.53;;;;;;;-0.01;76.35;98742.02;259115;1108;26214;-71
2021/03/08 06:32:17;;;;;;;26.35;15.15;;;;;;;-0.04;76.42;98747.73;259107;1108;23204;-72
2021/03/08 06:37:20;;;;;;;24.03;14.27;;;;;;;-0.02;75.97;98752.77;259504;1109;23010;-71
2021/03/08 06:42:22;;;;;;;24.63;14.33;;;;;;;-0.02;76.28;98758.04;260027;1108;23378;-71
2021/03/08 06:47:25;;;;;;;25.07;14.47;;;;;;;-0.09;76.61;98758.11;259513;1107;23028;-72
2021/03/08 06:52:41;;;;;;;23.50;14.20;;;;;;;-0.10;76.11;98758.33;259368;1108;23043;-71
2021/03/08 06:57:43;;;;;;;27.73;16.20;;;;;;;-0.03;76.52;98777.49;259522;1108;23181;-72
2021/03/08 07:02:49;;;;;;;26.93;14.77;;;;;;;0.01;76.12;98783.14;257199;1108;25793;-70
2021/03/08 07:08:01;;;;;;;29.67;15.70;;;;;;;0.05;76.30;98789.58;265139;1107;22901;-69
2021/03/08 07:13:09;;;;;;;28.07;15.03;;;;;;;0.18;77.31;98791.27;264097;1107;23390;-70
2021/03/08 07:18:20;;;;;;;22.10;13.53;;;;;;;0.24;76.50;98807.00;259636;1108;23163;-70
2021/03/08 07:23:26;;;;;;;25.23;14.37;;;;;;;0.30;76.41;98810.59;259719;1107;24099;-71
2021/03/08 07:28:28;;;;;;;31.53;17.63;;;;;;;0.44;77.25;98816.52;259868;1108;23086;-70
2021/03/08 07:33:31;;;;;;;23.17;14.10;;;;;;;0.62;76.45;98813.84;259448;1108;23062;-73
2021/03/08 07:38:36;;;;;;;23.77;14.23;;;;;;;0.78;76.40;98815.05;259939;1109;26227;-72
2021/03/08 07:43:44;;;;;;;21.57;13.00;;;;;;;0.87;76.65;98820.84;260549;1107;23039;-71
2021/03/08 07:48:46;;;;;;;22.83;14.57;;;;;;;0.91;76.40;98826.45;262431;1107;23020;-69
2021/03/08 07:54:02;;;;;;;23.75;12.90;;;;;;;0.93;75.62;98829.69;257222;1108;23033;-70
2021/03/08 07:59:04;;;;;;;23.00;12.90;;;;;;;1.01;75.98;98837.30;257450;1108;23219;-70
2021/03/08 08:04:07;;;;;;;23.47;13.43;;;;;;;1.30;76.41;98838.30;261932;1108;23167;-71
2021/03/08 08:09:11;;;;;;;25.73;13.90;;;;;;;1.52;75.56;98849.11;259578;1108;23052;-71
2021/03/08 08:14:19;;;;;;;26.05;15.25;;;;;;;1.78;75.62;98847.09;259797;1107;26034;-71
2021/03/08 08:19:23;;;;;;;23.70;14.20;;;;;;;1.95;75.46;98863.06;259842;1108;23020;-70
2021/03/08 08:24:26;;;;;;;23.67;14.07;;;;;;;1.99;74.51;98861.57;259972;1108;23074;-71
2021/03/08 08:29:29;;;;;;;22.77;13.77;;;;;;;2.01;74.53;98869.27;259500;1108;23238;-69
2021/03/08 08:34:39;;;;;;;21.20;12.57;;;;;;;2.09;73.43;98868.13;259720;1109;23076;-69
2021/03/08 08:39:43;;;;;;;16.63;10.50;;;;;;;2.18;73.79;98872.84;258034;1109;23601;-71
2021/03/08 08:44:51;;;;;;;15.93;9.67;;;;;;;2.27;72.45;98875.11;258656;1109;23079;-71
2021/03/08 08:50:05;;;;;;;15.43;9.70;;;;;;;2.36;72.12;98886.95;259651;1108;23208;-71
2021/03/08 08:55:08;;;;;;;15.90;9.40;;;;;;;2.52;72.04;98888.89;260645;1107;23205;-71
2021/03/08 09:00:21;;;;;;;17.50;10.40;;;;;;;2.79;71.37;98888.37;259392;1108;23056;-71
2021/03/08 09:05:27;;;;;;;19.07;11.47;;;;;;;2.85;71.03;98886.63;259555;1107;23151;-71
2021/03/08 09:10:35;;;;;;;18.55;10.55;;;;;;;2.85;70.54;98884.77;259337;1107;23074;-72
2021/03/08 09:15:38;;;;;;;15.80;10.07;;;;;;;2.63;69.93;98897.84;259331;1107;23225;-73
2021/03/08 09:20:43;;;;;;;14.10;8.77;;;;;;;2.49;70.43;98893.83;259407;1108;23226;-74
2021/03/08 09:25:54;;;;;;;14.00;8.67;;;;;;;2.54;70.64;98905.31;259576;1108;24411;-73
2021/03/08 09:30:57;;;;;;;11.63;7.80;;;;;;;2.79;70.25;98906.89;259846;1108;23013;-73
2021/03/08 09:36:01;;;;;;;15.30;7.97;;;;;;;2.97;69.40;98910.42;259444;1107;26052;-71
2021/03/08 09:41:04;;;;;;;12.63;7.37;;;;;;;2.99;68.06;98918.92;262281;1107;23188;-72
2021/03/08 09:46:13;;;;;;;10.40;6.35;;;;;;;2.83;67.81;98918.61;259918;1108;23472;-73
2021/03/08 09:51:18;;;;;;;7.47;5.53;;;;;;;2.83;68.06;98917.82;260512;1107;23123;-72
2021/03/08 09:56:26;;;;;;;8.90;5.10;;;;;;;2.78;66.47;98923.80;259593;1107;23080;-72
2021/03/08 10:01:29;;;;;;;10.43;5.53;;;;;;;2.88;66.76;98929.31;259488;1108;23077;-69
2021/03/08 10:06:33;;;;;;;7.53;5.40;;;;;;;3.04;65.38;98932.26;259746;1108;23015;-71
2021/03/08 10:11:36;;;;;;;8.00;5.03;;;;;;;3.11;64.74;98938.22;259541;1109;23402;-71
2021/03/08 10:16:38;;;;;;;6.37;3.80;;;;;;;2.94;63.81;98953.21;259511;1109;23216;-71
2021/03/08 10:21:41;;;;;;;4.53;2.87;;;;;;;3.07;62.44;98947.67;259575;1108;23347;-70
2021/03/08 10:26:45;;;;;;;5.53;3.87;;;;;;;3.49;62.28;98946.59;259547;1108;23024;-70
2021/03/08 10:31:52;;;;;;;7.77;4.80;;;;;;;3.49;59.87;98962.49;259392;1109;23206;-71
2021/03/08 10:36:55;;;;;;;4.63;3.00;;;;;;;2.95;57.93;98957.47;259522;1108;26697;-70
2021/03/08 10:41:58;;;;;;;4.40;3.03;;;;;;;2.69;58.13;98960.39;259977;1108;23030;-70
2021/03/08 10:47:00;;;;;;;6.90;4.00;;;;;;;2.73;59.47;98953.60;259537;1107;23023;-71
2021/03/08 10:52:10;;;;;;;6.80;3.50;;;;;;;2.76;57.50;98962.92;257859;1108;23015;-72
2021/03/08 10:57:14;;;;;;;5.40;2.63;;;;;;;2.73;56.32;98963.39;259641;1108;23226;-72
2021/03/08 11:02:18;;;;;;;5.40;2.75;;;;;;;2.80;56.52;98950.02;259733;1108;26408;-72
2021/03/08 11:07:29;;;;;;;7.93;4.10;;;;;;;3.12;57.10;98954.89;259661;1107;23026;-73
2021/03/08 11:12:32;;;;;;;6.37;3.43;;;;;;;3.22;53.59;98957.76;259850;1109;23019;-71
2021/03/08 11:17:56;;;;;;;5.20;2.80;;;;;;;2.95;54.18;98971.50;262277;1107;23071;-72
2021/03/08 11:23:04;;;;;;;3.95;2.40;;;;;;;3.04;55.00;98961.38;260362;1108;22990;-71
2021/03/08 11:28:12;;;;;;;4.17;2.70;;;;;;;3.36;55.06;98961.73;265642;1108;22803;-73
2021/03/08 11:33:16;;;;;;;4.63;2.43;;;;;;;3.54;53.43;98958.09;259697;1109;23036;-72
2021/03/08 11:38:25;;;;;;;3.20;2.10;;;;;;;3.58;52.30;98964.52;259460;1109;23352;-73
2021/03/08 11:43:27;;;;;;;5.27;3.00;;;;;;;3.87;53.07;98969.77;259447;1107;23256;-72
2021/03/08 11:48:29;;;;;;;3.73;2.77;;;;;;;4.23;52.83;98973.01;259201;1109;22982;-72
2021/03/08 11:53:32;;;;;;;3.13;1.70;;;;;;;3.90;49.61;98966.66;259529;1108;23028;-72
2021/03/08 11:58:34;;;;;;;5.40;1.90;;;;;;;3.55;50.30;98978.25;259447;1108;23150;-73
2021/03/08 12:03:36;;;;;;;3.37;2.10;;;;;;;3.62;50.81;98971.98;260069;1108;23012;-72
2021/03/08 12:08:38;;;;;;;1.60;1.50;;;;;;;3.80;48.41;98970.98;259483;1108;23219;-71
2021/03/08 12:13:41;;;;;;;2.20;1.27;;;;;;;3.76;45.95;98965.34;259375;1107;27794;-73
2021/03/08 12:18:43;;;;;;;4.87;1.70;;;;;;;3.43;47.58;98959.73;259347;1109;23022;-73
2021/03/08 12:23:46;;;;;;;4.23;2.43;;;;;;;3.52;48.76;98970.75;259322;1108;23145;-73
2021/03/08 12:28:48;;;;;;;2.20;1.60;;;;;;;3.75;49.09;98972.50;259335;1108;23458;-72
2021/03/08 12:33:51;;;;;;;4.03;2.10;;;;;;;3.76;48.86;98968.81;260054;1107;23191;-72
2021/03/08 12:38:53;;;;;;;2.80;1.80;;;;;;;3.73;48.14;98966.62;259634;1108;23025;-73
2021/03/08 12:43:55;;;;;;;2.30;1.50;;;;;;;3.69;46.86;98956.74;259657;1109;22984;-72
2021/03/08 12:48:58;;;;;;;2.60;1.50;;;;;;;3.72;46.28;98969.51;259767;1107;23356;-71
2021/03/08 12:54:01;;;;;;;1.50;1.30;;;;;;;3.77;47.39;98964.30;259497;1108;23170;-71
2021/03/08 12:59:03;;;;;;;3.73;1.70;;;;;;;4.04;46.92;98968.98;259553;1108;23024;-72
2021/03/08 13:04:05;;;;;;;3.60;2.10;;;;;;;4.26;47.10;98972.52;259494;1108;23017;-71
2021/03/08 13:09:07;;;;;;;3.60;1.97;;;;;;;4.46;46.77;98965.91;259645;1108;23228;-72
2021/03/08 13:14:09;;;;;;;4.70;2.73;;;;;;;4.37;46.24;98976.14;259566;1109;23354;-71
2021/03/08 13:19:12;;;;;;;5.47;2.60;;;;;;;4.25;46.54;98981.55;259637;1107;23153;-72
2021/03/08 13:24:14;;;;;;;1.73;1.33;;;;;;;4.09;44.37;98998.24;259819;1108;23080;-71
2021/03/08 13:29:16;;;;;;;2.73;1.53;;;;;;;3.91;44.61;98996.61;259455;1108;27263;-72
2021/03/08 13:34:19;;;;;;;2.37;1.40;;;;;;;3.65;45.20;99001.47;259526;1109;22999;-72
2021/03/08 13:39:21;;;;;;;3.47;1.80;;;;;;;3.29;45.38;99010.55;259624;1108;23459;-72
2021/03/08 13:44:24;;;;;;;1.43;1.00;;;;;;;2.99;45.35;99014.19;259675;1109;25130;-72
2021/03/08 13:49:26;;;;;;;2.83;1.30;;;;;;;2.99;46.66;99009.69;259482;1107;23455;-72
2021/03/08 13:54:29;;;;;;;1.67;0.97;;;;;;;3.25;45.58;99005.73;259344;1108;23173;-72
2021/03/08 13:59:31;;;;;;;2.33;1.20;;;;;;;3.39;46.26;99008.13;260000;1108;23354;-73
2021/03/08 14:04:34;;;;;;;2.40;1.20;;;;;;;3.45;45.29;99015.12;259385;1109;23497;-72
2021/03/08 14:09:37;;;;;;;2.80;1.20;;;;;;;3.38;44.75;99009.95;259356;1108;23356;-73
2021/03/08 14:14:42;;;;;;;1.50;1.10;;;;;;;3.29;45.75;99008.73;259304;1109;24031;-74
2021/03/08 14:19:49;;;;;;;2.97;1.37;;;;;;;3.28;46.47;99007.11;259316;1108;23071;-74
2021/03/08 14:24:52;;;;;;;1.93;1.27;;;;;;;3.22;46.66;99008.06;259487;1109;23251;-74
2021/03/08 14:29:54;;;;;;;2.20;1.70;;;;;;;3.21;47.00;99012.53;259100;1109;23244;-74
2021/03/08 14:34:56;;;;;;;4.40;1.95;;;;;;;3.20;46.67;99016.21;259407;1107;23124;-74
2021/03/08 14:40:00;;;;;;;4.20;1.80;;;;;;;3.08;46.88;99010.16;259172;1108;23073;-73
2021/03/08 14:45:06;;;;;;;2.67;1.67;;;;;;;3.00;46.13;99013.16;259476;1108;23073;-73
2021/03/08 14:50:09;;;;;;;6.93;2.40;;;;;;;2.91;47.39;99025.95;259388;1108;23020;-75
2021/03/08 14:55:12;;;;;;;5.90;2.37;;;;;;;2.84;46.70;99026.07;259445;1107;23612;-68
2021/03/08 15:00:15;;;;;;;8.50;3.17;;;;;;;2.78;46.61;99021.69;259183;1107;23986;-72
2021/03/08 15:05:19;;;;;;;3.33;1.77;;;;;;;2.73;45.73;99035.61;260190;1108;23006;-73
2021/03/08 15:10:21;;;;;;;5.20;2.50;;;;;;;2.65;46.14;99025.37;259984;1108;23737;-74
2021/03/08 15:15:24;;;;;;;4.30;2.27;;;;;;;2.62;47.18;99028.48;260254;1108;23225;-74
2021/03/08 15:20:26;;;;;;;4.75;2.80;;;;;;;2.53;46.08;99043.07;259274;1108;23222;-75
2021/03/08 15:25:28;;;;;;;5.55;3.10;;;;;;;2.47;46.88;99039.50;259180;1108;23000;-73
2021/03/08 15:30:30;;;;;;;2.77;1.30;;;;;;;2.45;47.14;99030.18;259310;1107;23024;-74
2021/03/08 15:35:33;;;;;;;2.43;1.60;;;;;;;2.39;46.04;99034.55;259263;1108;26984;-75
2021/03/08 15:40:35;;;;;;;2.87;1.20;;;;;;;2.36;46.29;99043.73;258941;1108;23023;-74
2021/03/08 15:45:37;;;;;;;2.43;1.20;;;;;;;2.32;46.30;99039.96;259161;1108;23023;-73
2021/03/08 15:50:40;;;;;;;2.80;1.23;;;;;;;2.25;47.45;99039.23;259027;1108;23083;-73
2021/03/08 15:55:43;;;;;;;5.03;2.10;;;;;;;2.18;46.59;99054.39;259450;1107;23040;-73
2021/03/08 16:00:45;;;;;;;6.90;2.57;;;;;;;2.08;47.03;99054.94;259008;1108;26405;-72
2021/03/08 16:05:47;;;;;;;5.87;2.73;;;;;;;1.94;47.00;99059.61;259191;1107;23033;-74
2021/03/08 16:10:49;;;;;;;6.67;3.33;;;;;;;1.77;47.64;99054.15;259349;1108;23093;-73
2021/03/08 16:15:51;;;;;;;5.33;2.67;;;;;;;1.62;47.00;99065.09;259295;1109;23286;-74
2021/03/08 16:20:56;;;;;;;5.47;2.70;;;;;;;1.46;47.43;99077.08;259209;1108;22978;-75
2021/03/08 16:25:58;;;;;;;6.23;2.73;;;;;;;1.36;47.96;99080.23;259238;1107;23057;-74
2021/03/08 16:31:01;;;;;;;6.50;3.00;;;;;;;1.29;47.63;99076.88;259159;1109;23008;-74
2021/03/08 16:36:04;;;;;;;5.07;2.70;;;;;;;1.24;48.64;99081.20;259245;1108;23086;-74
2021/03/08 16:41:07;;;;;;;4.60;2.50;;;;;;;1.22;48.06;99085.87;259229;1109;23015;-74
2021/03/08 16:46:09;;;;;;;5.60;2.30;;;;;;;1.17;48.21;99089.97;259082;1107;23027;-75
2021/03/08 16:51:11;;;;;;;3.37;2.00;;;;;;;1.14;49.36;99095.69;259228;1108;23083;-75
2021/03/08 16:56:14;;;;;;;6.20;2.13;;;;;;;1.06;49.55;99093.34;259258;1109;23034;-74
2021/03/08 17:01:17;;;;;;;3.50;1.90;;;;;;;1.01;50.08;99106.39;259213;1108;23070;-74
2021/03/08 17:06:19;;;;;;;8.73;4.10;;;;;;;0.93;50.07;99110.10;259322;1108;23059;-75
2021/03/08 17:11:21;;;;;;;14.63;5.90;;;;;;;0.85;50.60;99115.65;259179;1108;23074;-75
2021/03/08 17:16:23;;;;;;;11.55;4.90;;;;;;;0.78;50.70;99120.17;259279;1107;23062;-75
2021/03/08 17:21:26;;;;;;;15.63;8.17;;;;;;;0.67;51.28;99133.05;259317;1108;23021;-75
2021/03/08 17:26:28;;;;;;;11.33;5.77;;;;;;;0.61;50.92;99125.18;259195;1108;23085;-74
2021/03/08 17:31:31;;;;;;;10.00;4.87;;;;;;;0.55;51.42;99137.39;259192;1108;22960;-73
2021/03/08 17:36:34;;;;;;;7.20;3.43;;;;;;;0.46;51.41;99139.48;259540;1107;23020;-74
2021/03/08 17:41:36;;;;;;;8.93;3.73;;;;;;;0.40;51.45;99147.43;259633;1107;23238;-74
2021/03/08 17:46:39;;;;;;;9.27;4.47;;;;;;;0.30;52.50;99146.05;259338;1108;23017;-75
2021/03/08 17:51:42;;;;;;;8.97;3.90;;;;;;;0.24;51.87;99154.81;259443;1107;23267;-73
2021/03/08 17:56:44;;;;;;;12.97;5.67;;;;;;;0.17;53.21;99148.78;259506;1108;23134;-74
2021/03/08 18:02:07;;;;;;;29.00;13.05;;;;;;;0.10;52.23;99159.34;259252;1108;23021;-74
2021/03/08 18:07:11;;;;;;;17.07;9.03;;;;;;;0.07;53.14;99165.05;259363;1108;23176;-74
2021/03/08 18:12:13;;;;;;;36.30;13.13;;;;;;;0.00;52.73;99172.17;259437;1108;23033;-73
2021/03/08 18:17:15;;;;;;;19.07;7.93;;;;;;;-0.08;53.72;99162.67;259257;1108;23087;-75
2021/03/08 18:22:18;;;;;;;15.07;6.60;;;;;;;-0.14;53.81;99168.78;259436;1108;23229;-75
2021/03/08 18:27:21;;;;;;;13.83;6.07;;;;;;;-0.18;54.46;99178.11;259495;1108;23080;-74
2021/03/08 18:32:24;;;;;;;12.53;6.20;;;;;;;-0.21;54.64;99175.88;259290;1108;26674;-75
2021/03/08 18:37:27;;;;;;;16.83;6.70;;;;;;;-0.22;54.18;99174.27;259573;1108;23083;-72
2021/03/08 18:42:47;;;;;;;14.40;6.40;;;;;;;-0.23;55.54;99177.91;259469;1106;23081;-75
2021/03/08 18:47:49;;;;;;;14.93;7.27;;;;;;;-0.25;55.22;99180.77;259195;1108;23222;-74
2021/03/08 18:52:56;;;;;;;13.95;6.70;;;;;;;-0.30;54.82;99180.56;259174;1108;23249;-72
2021/03/08 18:58:01;;;;;;;14.77;7.37;;;;;;;-0.35;55.05;99180.37;259168;1108;23006;-74
2021/03/08 19:03:04;;;;;;;15.03;7.03;;;;;;;-0.39;54.67;99187.09;259207;1108;23248;-73
2021/03/08 19:08:07;;;;;;;20.20;7.80;;;;;;;-0.43;54.14;99186.68;259284;1108;23024;-73
2021/03/08 19:13:10;;;;;;;17.80;7.40;;;;;;;-0.49;54.80;99189.31;259206;1108;25982;-73
2021/03/08 19:18:12;;;;;;;28.43;10.03;;;;;;;-0.57;54.85;99185.89;259239;1109;23037;-72
2021/03/08 19:23:15;;;;;;;23.35;9.45;;;;;;;-0.63;54.64;99191.16;259387;1107;23272;-73
2021/03/08 19:28:17;;;;;;;31.93;13.00;;;;;;;-0.73;54.78;99188.95;259471;1109;23184;-72
2021/03/08 19:33:19;;;;;;;59.40;18.80;;;;;;;-0.82;55.03;99190.98;258901;1109;23030;-74
2021/03/08 19:38:21;;;;;;;26.67;11.80;;;;;;;-0.88;55.81;99189.19;259282;1109;23235;-74
2021/03/08 19:43:23;;;;;;;24.90;11.83;;;;;;;-0.92;56.23;99196.66;259191;1108;24596;-73
2021/03/08 19:48:26;;;;;;;30.40;12.63;;;;;;;-0.98;56.67;99197.48;259299;1109;25973;-74
2021/03/08 19:53:28;;;;;;;35.53;13.30;;;;;;;-1.04;57.01;99198.27;259257;1108;22972;-73
2021/03/08 19:58:30;;;;;;;24.83;10.70;;;;;;;-1.07;57.15;99201.31;258879;1109;23036;-72
2021/03/08 20:03:33;;;;;;;25.37;11.67;;;;;;;-1.11;58.00;99200.09;259093;1109;23089;-73
2021/03/08 20:08:37;;;;;;;23.07;10.57;;;;;;;-1.13;58.09;99205.55;259218;1109;23027;-74
2021/03/08 20:13:48;;;;;;;23.97;10.60;;;;;;;-1.11;58.79;99202.72;259162;1109;26462;-73
2021/03/08 20:18:51;;;;;;;20.40;10.23;;;;;;;-1.06;59.73;99206.36;258988;1109;23021;-73
2021/03/08 20:23:53;;;;;;;23.30;10.73;;;;;;;-1.08;59.55;99203.14;258952;1109;23043;-74
2021/03/08 20:28:55;;;;;;;22.80;10.77;;;;;;;-1.09;60.27;99198.05;259002;1109;23088;-74
2021/03/08 20:33:59;;;;;;;26.30;11.57;;;;;;;-1.15;60.14;99196.24;259024;1108;23064;-73
2021/03/08 20:39:02;;;;;;;18.83;10.10;;;;;;;-1.18;60.02;99194.02;259077;1108;23086;-73
2021/03/08 20:44:05;;;;;;;22.53;10.57;;;;;;;-1.27;60.06;99199.47;259061;1107;23015;-73
2021/03/08 20:49:07;;;;;;;22.93;11.43;;;;;;;-1.33;60.22;99192.40;259098;1108;26406;-72
2021/03/08 20:54:10;;;;;;;38.33;16.50;;;;;;;-1.36;60.14;99198.03;259034;1108;22991;-72
2021/03/08 20:59:12;;;;;;;35.17;14.20;;;;;;;-1.46;60.29;99182.66;258696;1109;23030;-73
2021/03/08 21:04:14;;;;;;;43.23;16.57;;;;;;;-1.55;60.30;99182.03;259166;1109;23041;-73
2021/03/08 21:09:16;;;;;;;43.07;17.37;;;;;;;-1.61;61.00;99188.09;259156;1109;23084;-73
2021/03/08 21:14:19;;;;;;;72.23;25.90;;;;;;;-1.68;61.44;99183.82;259101;1107;25882;-73
2021/03/08 21:19:38;;;;;;;62.13;25.03;;;;;;;-1.74;61.43;99178.34;259116;1108;23664;-73
2021/03/08 21:24:41;;;;;;;46.70;18.47;;;;;;;-1.77;61.91;99186.63;258895;1108;23007;-72
2021/03/08 21:30:03;;;;;;;39.40;15.80;;;;;;;-1.85;62.05;99194.67;259047;1107;23226;-72
2021/03/08 21:35:06;;;;;;;31.43;15.80;;;;;;;-1.91;63.04;99185.77;259150;1108;23023;-72
2021/03/08 21:40:12;;;;;;;37.50;16.50;;;;;;;-2.00;63.03;99189.59;259228;1108;23023;-73
2021/03/08 21:45:16;;;;;;;44.93;18.30;;;;;;;-2.16;63.94;99189.92;259364;1108;23033;-73
2021/03/08 21:50:19;;;;;;;67.40;26.77;;;;;;;-2.39;64.04;99188.40;259185;1108;23093;-74
2021/03/08 21:55:22;;;;;;;101.47;38.47;;;;;;;-2.57;64.80;99183.65;259278;1108;23045;-72
2021/03/08 22:00:27;;;;;;;111.17;40.37;;;;;;;-2.62;65.08;99189.45;259039;1109;23097;-73
2021/03/08 22:05:30;;;;;;;121.80;44.10;;;;;;;-2.74;65.40;99188.38;259002;1108;23232;-72
2021/03/08 22:10:33;;;;;;;133.10;49.73;;;;;;;-2.75;65.82;99184.94;259119;1108;23266;-72
2021/03/08 22:15:35;;;;;;;105.17;41.83;;;;;;;-2.76;66.00;99182.51;259209;1108;23363;-73
2021/03/08 22:20:37;;;;;;;131.07;48.87;;;;;;;-2.83;66.01;99184.28;259055;1108;23104;-72
2021/03/08 22:25:39;;;;;;;120.97;46.63;;;;;;;-2.82;66.23;99184.08;259147;1107;23144;-73
2021/03/08 22:30:42;;;;;;;126.43;48.07;;;;;;;-2.76;66.47;99185.13;259160;1108;23082;-72
2021/03/08 22:35:44;;;;;;;98.97;41.57;;;;;;;-2.74;66.56;99188.38;259055;1109;23036;-73
2021/03/08 22:40:51;;;;;;;117.63;45.40;;;;;;;-2.78;66.06;99184.52;259167;1108;23021;-73
2021/03/08 22:45:53;;;;;;;109.70;38.77;;;;;;;-2.81;66.54;99192.75;259110;1109;23078;-72
2021/03/08 22:50:55;;;;;;;117.47;45.53;;;;;;;-2.90;66.80;99184.22;259099;1108;23020;-73
2021/03/08 22:55:57;;;;;;;126.05;46.95;;;;;;;-2.95;67.03;99184.80;259067;1108;23083;-73
2021/03/08 23:01:00;;;;;;;90.67;32.37;;;;;;;-2.96;66.94;99187.61;259187;1109;23174;-73
2021/03/08 23:06:02;;;;;;;100.20;39.60;;;;;;;-2.96;67.07;99188.41;259073;1109;23091;-73
2021/03/08 23:11:05;;;;;;;104.77;39.03;;;;;;;-2.85;67.18;99183.67;259225;1107;23083;-72
2021/03/08 23:16:08;;;;;;;88.50;33.10;;;;;;;-2.80;67.16;99189.12;259068;1109;23083;-72
2021/03/08 23:21:11;;;;;;;75.17;33.03;;;;;;;-2.80;67.15;99183.89;259146;1109;23083;-74
2021/03/08 23:26:15;;;;;;;96.23;35.63;;;;;;;-2.73;67.49;99171.63;259207;1107;23011;-72